Time,TemperatureF,DewpointF,PressureIn,WindDirection,WindDirectionDegrees,WindSpeedMPH,WindSpeedGustMPH,Humidity,HourlyPrecipIn,Conditions,Clouds,dailyrainin,SolarRadiationWatts/m^2,SoftwareType,DateUTC
2013-07-12 00:01:00,74.0,73.0,29.98,WSW,242,0.0,0.0,96,0.00,,,0.00,0,weatherlink.com 1.10,2013-07-12 04:01:00,
2013-07-12 00:16:00,73.9,73.0,29.97,WSW,242,0.0,0.0,96,0.00,,,0.00,0,weatherlink.com 1.10,2013-07-12 04:16:00,
2013-07-12 00:31:00,73.8,73.0,29.97,WSW,242,0.0,0.0,96,0.00,,,0.00,0,weatherlink.com 1.10,2013-07-12 04:31:00,
2013-07-12 00:47:00,73.6,72.0,29.96,WSW,242,0.0,0.0,96,0.00,,,0.00,0,weatherlink.com 1.10,2013-07-12 04:47:00,
2013-07-12 01:02:00,73.6,72.0,29.97,WSW,242,0.0,0.0,96,0.00,,,0.00,0,weatherlink.com 1.10,2013-07-12 05:02:00,
2013-07-12 01:17:00,73.6,73.0,29.96,WSW,242,0.0,0.0,97,0.00,,,0.00,0,weatherlink.com 1.10,2013-07-12 05:17:00,
2013-07-12 01:32:00,73.5,73.0,29.95,WSW,242,0.0,0.0,97,0.00,,,0.00,0,weatherlink.com 1.10,2013-07-12 05:32:00,
2013-07-12 01:47:00,73.5,73.0,29.95,WSW,242,0.0,0.0,97,0.00,,,0.00,0,weatherlink.com 1.10,2013-07-12 05:47:00,
2013-07-12 02:02:00,73.5,73.0,29.95,WSW,242,0.0,0.0,97,0.00,,,0.00,0,weatherlink.com 1.10,2013-07-12 06:02:00,
2013-07-12 02:17:00,73.6,73.0,29.95,WSW,242,0.0,0.0,97,0.00,,,0.00,0,weatherlink.com 1.10,2013-07-12 06:17:00,
2013-07-12 02:32:00,73.5,73.0,29.95,WSW,242,0.0,0.0,97,0.00,,,0.00,0,weatherlink.com 1.10,2013-07-12 06:32:00,
2013-07-12 02:47:00,73.3,72.0,29.94,WSW,242,0.0,0.0,97,0.00,,,0.00,0,weatherlink.com 1.10,2013-07-12 06:47:00,
2013-07-12 03:02:00,73.3,72.0,29.94,WSW,242,0.0,0.0,97,0.00,,,0.00,0,weatherlink.com 1.10,2013-07-12 07:02:00,
2013-07-12 03:17:00,73.2,72.0,29.94,WSW,242,0.0,0.0,97,0.00,,,0.00,0,weatherlink.com 1.10,2013-07-12 07:17:00,
2013-07-12 03:32:00,73.2,72.0,29.94,WSW,242,0.0,0.0,97,0.00,,,0.00,0,weatherlink.com 1.10,2013-07-12 07:32:00,
2013-07-12 03:47:00,73.1,72.0,29.94,WSW,242,0.0,0.0,97,0.00,,,0.00,0,weatherlink.com 1.10,2013-07-12 07:47:00,
2013-07-12 04:02:00,73.2,73.0,29.93,WSW,242,0.0,0.0,98,0.00,,,0.00,0,weatherlink.com 1.10,2013-07-12 08:02:00,
2013-07-12 04:17:00,73.1,73.0,29.93,WSW,242,0.0,0.0,98,0.00,,,0.00,0,weatherlink.com 1.10,2013-07-12 08:17:00,
2013-07-12 04:32:00,73.3,73.0,29.93,WSW,242,0.0,0.0,98,0.00,,,0.00,0,weatherlink.com 1.10,2013-07-12 08:32:00,
2013-07-12 04:47:00,73.2,73.0,29.93,WSW,242,0.0,0.0,98,0.00,,,0.00,0,weatherlink.com 1.10,2013-07-12 08:47:00,
2013-07-12 05:02:00,73.2,73.0,29.93,WSW,242,0.0,0.0,98,0.00,,,0.00,0,weatherlink.com 1.10,2013-07-12 09:02:00,
2013-07-12 05:17:00,73.1,73.0,29.93,WSW,242,0.0,0.0,98,0.00,,,0.00,0,weatherlink.com 1.10,2013-07-12 09:17:00,
2013-07-12 05:32:00,73.1,73.0,29.93,WSW,242,0.0,0.0,98,0.00,,,0.00,0,weatherlink.com 1.10,2013-07-12 09:32:00,
2013-07-12 05:47:00,73.1,73.0,29.93,WSW,242,0.0,0.0,98,0.00,,,0.00,0,weatherlink.com 1.10,2013-07-12 09:47:00,
2013-07-12 06:02:00,72.9,72.0,29.93,WSW,242,0.0,0.0,98,0.00,,,0.00,0,weatherlink.com 1.10,2013-07-12 10:02:00,
2013-07-12 06:17:00,72.8,72.0,29.93,WSW,242,0.0,0.0,98,0.00,,,0.00,0,weatherlink.com 1.10,2013-07-12 10:17:00,
2013-07-12 06:32:00,72.7,72.0,29.94,WSW,242,0.0,0.0,98,0.00,,,0.00,0,weatherlink.com 1.10,2013-07-12 10:32:00,
2013-07-12 06:47:00,72.7,72.0,29.94,WSW,242,0.0,0.0,98,0.00,,,0.00,7,weatherlink.com 1.10,2013-07-12 10:47:00,
2013-07-12 07:02:00,72.8,72.0,29.94,WSW,242,0.0,0.0,98,0.00,,,0.00,18,weatherlink.com 1.10,2013-07-12 11:02:00,
2013-07-12 07:17:00,73.0,72.0,29.94,WSW,242,0.0,0.0,98,0.00,,,0.00,28,weatherlink.com 1.10,2013-07-12 11:17:00,
2013-07-12 07:32:00,73.9,74.0,29.94,South,180,0.0,0.0,99,0.00,,,0.00,47,weatherlink.com 1.10,2013-07-12 11:32:00,
2013-07-12 07:47:00,74.6,74.0,29.95,South,180,0.0,0.0,99,0.00,,,0.00,72,weatherlink.com 1.10,2013-07-12 11:47:00,
2013-07-12 08:02:00,75.5,75.0,29.95,South,180,0.0,0.0,99,0.00,,,0.00,26,weatherlink.com 1.10,2013-07-12 12:02:00,
2013-07-12 08:17:00,76.2,76.0,29.96,South,181,0.0,0.0,99,0.00,,,0.00,53,weatherlink.com 1.10,2013-07-12 12:17:00,
2013-07-12 08:32:00,77.3,77.0,29.96,South,181,0.0,0.0,99,0.00,,,0.00,234,weatherlink.com 1.10,2013-07-12 12:32:00,
2013-07-12 08:47:00,78.4,78.0,29.96,South,181,0.0,0.0,98,0.00,,,0.00,107,weatherlink.com 1.10,2013-07-12 12:47:00,
2013-07-12 09:02:00,79.5,77.0,29.96,South,181,0.0,0.0,92,0.00,,,0.00,90,weatherlink.com 1.10,2013-07-12 13:02:00,
2013-07-12 09:17:00,80.9,78.0,29.96,SW,229,0.0,2.0,89,0.00,,,0.00,102,weatherlink.com 1.10,2013-07-12 13:17:00,
2013-07-12 09:32:00,81.9,77.0,29.97,SW,228,0.0,2.0,86,0.00,,,0.00,118,weatherlink.com 1.10,2013-07-12 13:32:00,
2013-07-12 09:47:00,82.5,78.0,29.97,West,264,1.0,2.0,85,0.00,,,0.00,392,weatherlink.com 1.10,2013-07-12 13:47:00,
2013-07-12 10:02:00,82.9,77.0,29.97,West,260,0.0,3.0,83,0.00,,,0.00,594,weatherlink.com 1.10,2013-07-12 14:02:00,
2013-07-12 10:17:00,83.7,78.0,29.97,West,260,0.0,3.0,82,0.00,,,0.00,478,weatherlink.com 1.10,2013-07-12 14:17:00,
2013-07-12 10:33:00,83.7,77.0,29.97,WNW,286,1.0,2.0,79,0.00,,,0.00,234,weatherlink.com 1.10,2013-07-12 14:33:00,
2013-07-12 10:48:00,84.3,76.0,29.97,WNW,288,1.0,3.0,76,0.00,,,0.00,107,weatherlink.com 1.10,2013-07-12 14:48:00,
2013-07-12 11:03:00,85.1,75.0,29.97,WNW,286,0.0,3.0,72,0.00,,,0.00,125,weatherlink.com 1.10,2013-07-12 15:03:00,
2013-07-12 11:18:00,85.3,76.0,29.97,WNW,285,2.0,2.0,74,0.00,,,0.00,316,weatherlink.com 1.10,2013-07-12 15:18:00,
2013-07-12 11:33:00,85.9,76.0,29.97,SE,142,0.0,4.0,72,0.00,,,0.00,615,weatherlink.com 1.10,2013-07-12 15:33:00,
2013-07-12 12:03:00,86.8,76.0,29.96,SW,221,2.0,4.0,70,0.00,,,0.00,232,weatherlink.com 1.10,2013-07-12 16:03:00,
2013-07-12 12:18:00,87.9,76.0,29.96,NNW,346,3.0,4.0,68,0.00,,,0.00,292,weatherlink.com 1.10,2013-07-12 16:18:00,
2013-07-12 12:33:00,88.1,76.0,29.95,SSW,210,1.0,3.0,68,0.00,,,0.00,561,weatherlink.com 1.10,2013-07-12 16:33:00,
2013-07-12 12:48:00,87.9,76.0,29.95,SE,130,1.0,4.0,67,0.00,,,0.00,304,weatherlink.com 1.10,2013-07-12 16:48:00,
2013-07-12 13:03:00,87.5,76.0,29.94,West,273,0.0,4.0,68,0.00,,,0.00,267,weatherlink.com 1.10,2013-07-12 17:03:00,
2013-07-12 13:18:00,87.6,76.0,29.94,SSE,150,0.0,3.0,68,0.00,,,0.00,257,weatherlink.com 1.10,2013-07-12 17:18:00,
2013-07-12 13:48:00,83.3,76.0,29.94,SSW,197,2.0,8.0,79,0.00,,,0.00,211,weatherlink.com 1.10,2013-07-12 17:48:00,
2013-07-12 14:03:00,82.6,76.0,29.93,SE,138,0.0,5.0,80,0.00,,,0.00,218,weatherlink.com 1.10,2013-07-12 18:03:00,
2013-07-12 14:18:00,82.5,76.0,29.93,WSW,254,1.0,7.0,81,0.00,,,0.00,243,weatherlink.com 1.10,2013-07-12 18:18:00,
2013-07-12 14:33:00,82.9,77.0,29.93,SSE,155,1.0,3.0,81,0.00,,,0.00,276,weatherlink.com 1.10,2013-07-12 18:33:00,
2013-07-12 14:48:00,83.7,75.0,29.93,SSE,166,2.0,4.0,76,0.00,,,0.00,299,weatherlink.com 1.10,2013-07-12 18:48:00,
2013-07-12 15:03:00,84.8,77.0,29.92,SE,133,3.0,5.0,77,0.00,,,0.00,589,weatherlink.com 1.10,2013-07-12 19:03:00,
2013-07-12 15:18:00,86.3,78.0,29.92,South,190,0.0,6.0,75,0.00,,,0.00,724,weatherlink.com 1.10,2013-07-12 19:18:00,
2013-07-12 15:33:00,87.3,77.0,29.91,SSE,166,0.0,5.0,72,0.00,,,0.00,796,weatherlink.com 1.10,2013-07-12 19:33:00,
2013-07-12 15:48:00,88.2,76.0,29.92,SSE,159,1.0,5.0,68,0.00,,,0.00,751,weatherlink.com 1.10,2013-07-12 19:48:00,
2013-07-12 16:03:00,89.3,77.0,29.91,SE,134,2.0,4.0,67,0.00,,,0.00,773,weatherlink.com 1.10,2013-07-12 20:03:00,
2013-07-12 16:18:00,89.4,75.0,29.91,WSW,239,0.0,4.0,62,0.00,,,0.00,281,weatherlink.com 1.10,2013-07-12 20:18:00,
2013-07-12 16:33:00,85.6,73.0,29.93,NNW,347,3.0,9.0,67,0.00,,,0.00,193,weatherlink.com 1.10,2013-07-12 20:33:00,
2013-07-12 16:48:00,82.3,72.0,29.93,WNW,300,0.0,9.0,72,0.00,,,0.00,77,weatherlink.com 1.10,2013-07-12 20:48:00,
2013-07-12 17:18:00,78.7,72.0,29.92,WNW,286,2.0,5.0,80,0.00,,,0.00,63,weatherlink.com 1.10,2013-07-12 21:18:00,
2013-07-12 17:33:00,78.4,72.0,29.92,WNW,290,1.0,7.0,81,0.00,,,0.00,63,weatherlink.com 1.10,2013-07-12 21:33:00,
2013-07-12 17:48:00,79.2,73.0,29.92,West,279,1.0,4.0,80,0.00,,,0.00,91,weatherlink.com 1.10,2013-07-12 21:48:00,
2013-07-12 18:03:00,79.9,72.0,29.92,North,355,1.0,3.0,76,0.00,,,0.00,127,weatherlink.com 1.10,2013-07-12 22:03:00,
2013-07-12 18:18:00,79.9,73.0,29.93,North,355,0.0,2.0,79,0.00,,,0.00,120,weatherlink.com 1.10,2013-07-12 22:18:00,
2013-07-12 18:33:00,80.0,74.0,29.94,North,355,0.0,1.0,81,0.00,,,0.00,77,weatherlink.com 1.10,2013-07-12 22:33:00,
2013-07-12 18:48:00,80.3,74.0,29.94,SSE,155,1.0,8.0,80,0.00,,,0.00,46,weatherlink.com 1.10,2013-07-12 22:48:00,
2013-07-12 19:03:00,78.7,73.0,29.94,SSE,155,0.0,7.0,82,0.00,,,0.00,39,weatherlink.com 1.10,2013-07-12 23:03:00,
2013-07-12 19:18:00,77.7,73.0,29.94,SSE,152,0.0,5.0,84,0.00,,,0.00,32,weatherlink.com 1.10,2013-07-12 23:18:00,
2013-07-12 19:33:00,77.3,72.0,29.95,SSW,196,0.0,4.0,84,0.00,,,0.00,33,weatherlink.com 1.10,2013-07-12 23:33:00,
2013-07-12 19:48:00,77.3,72.0,29.95,SE,134,0.0,3.0,84,0.00,,,0.00,14,weatherlink.com 1.10,2013-07-12 23:48:00,
2013-07-12 20:03:00,76.7,72.0,29.94,South,172,0.0,2.0,85,0.00,,,0.00,5,weatherlink.com 1.10,2013-07-13 00:03:00,
2013-07-12 20:33:00,75.9,73.0,29.94,South,182,0.0,2.0,90,0.00,,,0.00,0,weatherlink.com 1.10,2013-07-13 00:33:00,
2013-07-12 20:48:00,75.5,73.0,29.95,South,182,0.0,1.0,90,0.00,,,0.00,0,weatherlink.com 1.10,2013-07-13 00:48:00,
2013-07-12 21:03:00,75.4,72.0,29.95,South,182,0.0,0.0,90,0.00,,,0.00,0,weatherlink.com 1.10,2013-07-13 01:03:00,
2013-07-12 21:18:00,75.3,72.0,29.96,South,182,0.0,0.0,90,0.00,,,0.00,0,weatherlink.com 1.10,2013-07-13 01:18:00,
2013-07-12 21:48:00,75.8,73.0,29.96,South,182,0.0,1.0,91,0.00,,,0.00,0,weatherlink.com 1.10,2013-07-13 01:48:00,
2013-07-12 22:18:00,75.7,73.0,29.97,South,182,0.0,0.0,92,0.00,,,0.00,0,weatherlink.com 1.10,2013-07-13 02:18:00,
2013-07-12 22:33:00,75.7,73.0,29.97,South,182,0.0,1.0,91,0.00,,,0.00,0,weatherlink.com 1.10,2013-07-13 02:33:00,
2013-07-12 22:48:00,75.6,73.0,29.97,South,182,0.0,0.0,90,0.00,,,0.00,0,weatherlink.com 1.10,2013-07-13 02:48:00,
2013-07-12 23:03:00,75.4,72.0,29.98,South,182,0.0,1.0,90,0.00,,,0.00,0,weatherlink.com 1.10,2013-07-13 03:03:00,
2013-07-12 23:18:00,75.2,72.0,29.98,South,182,0.0,0.0,90,0.00,,,0.00,0,weatherlink.com 1.10,2013-07-13 03:18:00,
2013-07-12 23:33:00,75.0,72.0,29.97,South,182,0.0,0.0,90,0.00,,,0.00,0,weatherlink.com 1.10,2013-07-13 03:33:00,
2013-07-12 23:48:00,74.7,72.0,29.97,South,182,0.0,0.0,91,0.00,,,0.00,0,weatherlink.com 1.10,2013-07-13 03:48:00,